sensor_id;sensor_type;location;lat;lon;timestamp;pressure;altitude;pressure_sealevel;temperature;humidity
25722;BME280;13578;53.450;15.496;2023-03-05T00:00:54;99414.75;;;-3.09;100.00
25722;BME280;13578;53.450;15.496;2023-03-05T00:03:55;99416.25;;;-3.01;100.00
25722;BME280;13578;53.450;15.496;2023-03-05T00:06:56;99415.06;;;-2.94;100.00
25722;BME280;13578;53.450;15.496;2023-03-05T00:10:01;99398.06;;;-2.95;100.00
25722;BME280;13578;53.450;15.496;2023-03-05T00:13:02;99402.50;;;-2.94;100.00
25722;BME280;13578;53.450;15.496;2023-03-05T00:16:09;99387.50;;;-2.99;100.00
25722;BME280;13578;53.450;15.496;2023-03-05T00:19:10;99370.91;;;-3.09;100.00
25722;BME280;13578;53.450;15.496;2023-03-05T00:22:10;99356.16;;;-3.21;100.00
25722;BME280;13578;53.450;15.496;2023-03-05T00:25:11;99364.22;;;-3.21;100.00
25722;BME280;13578;53.450;15.496;2023-03-05T00:28:12;99388.69;;;-3.07;100.00
25722;BME280;13578;53.450;15.496;2023-03-05T00:31:13;99381.66;;;-3.09;100.00
25722;BME280;13578;53.450;15.496;2023-03-05T00:34:15;99371.34;;;-2.98;100.00
25722;BME280;13578;53.450;15.496;2023-03-05T00:37:16;99362.78;;;-2.85;100.00
25722;BME280;13578;53.450;15.496;2023-03-05T00:40:17;99373.59;;;-2.87;100.00
25722;BME280;13578;53.450;15.496;2023-03-05T00:43:18;99373.91;;;-2.73;100.00
25722;BME280;13578;53.450;15.496;2023-03-05T00:46:18;99371.25;;;-2.74;100.00
25722;BME280;13578;53.450;15.496;2023-03-05T00:49:19;99375.38;;;-2.65;100.00
25722;BME280;13578;53.450;15.496;2023-03-05T00:52:20;99367.63;;;-2.73;100.00
25722;BME280;13578;53.450;15.496;2023-03-05T00:55:20;99358.28;;;-2.85;100.00
25722;BME280;13578;53.450;15.496;2023-03-05T00:58:21;99360.47;;;-2.73;100.00
25722;BME280;13578;53.450;15.496;2023-03-05T01:01:22;99353.88;;;-2.65;100.00
25722;BME280;13578;53.450;15.496;2023-03-05T01:04:23;99353.19;;;-2.71;100.00
25722;BME280;13578;53.450;15.496;2023-03-05T01:07:24;99341.50;;;-2.69;100.00
25722;BME280;13578;53.450;15.496;2023-03-05T01:10:24;99341.78;;;-2.55;100.00
25722;BME280;13578;53.450;15.496;2023-03-05T01:13:29;99334.63;;;-2.54;100.00
25722;BME280;13578;53.450;15.496;2023-03-05T01:16:30;99328.06;;;-2.49;100.00
25722;BME280;13578;53.450;15.496;2023-03-05T01:19:30;99331.72;;;-2.50;100.00
25722;BME280;13578;53.450;15.496;2023-03-05T01:22:31;99329.81;;;-2.48;100.00
25722;BME280;13578;53.450;15.496;2023-03-05T01:25:31;99328.69;;;-2.42;100.00
25722;BME280;13578;53.450;15.496;2023-03-05T01:28:32;99329.03;;;-2.29;100.00
25722;BME280;13578;53.450;15.496;2023-03-05T01:31:33;99317.34;;;-2.28;100.00
25722;BME280;13578;53.450;15.496;2023-03-05T01:34:35;99313.44;;;-2.21;100.00
25722;BME280;13578;53.450;15.496;2023-03-05T01:37:37;99307.53;;;-2.29;100.00
25722;BME280;13578;53.450;15.496;2023-03-05T01:40:37;99308.53;;;-2.32;100.00
25722;BME280;13578;53.450;15.496;2023-03-05T01:43:39;99302.28;;;-2.32;100.00
25722;BME280;13578;53.450;15.496;2023-03-05T01:46:39;99300.91;;;-2.22;100.00
25722;BME280;13578;53.450;15.496;2023-03-05T01:49:40;99297.75;;;-2.11;100.00
25722;BME280;13578;53.450;15.496;2023-03-05T01:52:47;99280.06;;;-2.17;100.00
25722;BME280;13578;53.450;15.496;2023-03-05T01:55:49;99279.78;;;-2.11;100.00
25722;BME280;13578;53.450;15.496;2023-03-05T01:58:50;99284.88;;;-2.04;100.00
25722;BME280;13578;53.450;15.496;2023-03-05T02:01:55;99283.78;;;-2.00;100.00
25722;BME280;13578;53.450;15.496;2023-03-05T02:05:00;99276.53;;;-1.98;100.00
25722;BME280;13578;53.450;15.496;2023-03-05T02:08:08;99269.25;;;-1.96;100.00
25722;BME280;13578;53.450;15.496;2023-03-05T02:11:09;99266.25;;;-1.90;100.00
25722;BME280;13578;53.450;15.496;2023-03-05T02:14:10;99259.44;;;-1.97;100.00
25722;BME280;13578;53.450;15.496;2023-03-05T02:17:11;99247.69;;;-1.95;100.00
25722;BME280;13578;53.450;15.496;2023-03-05T02:20:17;99248.25;;;-1.88;100.00
25722;BME280;13578;53.450;15.496;2023-03-05T02:23:19;99252.91;;;-1.92;100.00
25722;BME280;13578;53.450;15.496;2023-03-05T02:26:20;99249.56;;;-1.78;100.00
25722;BME280;13578;53.450;15.496;2023-03-05T02:29:20;99252.75;;;-1.88;100.00
25722;BME280;13578;53.450;15.496;2023-03-05T02:32:21;99245.13;;;-1.79;100.00
25722;BME280;13578;53.450;15.496;2023-03-05T02:35:22;99241.41;;;-1.76;100.00
25722;BME280;13578;53.450;15.496;2023-03-05T02:38:23;99235.94;;;-1.74;100.00
25722;BME280;13578;53.450;15.496;2023-03-05T02:41:24;99230.06;;;-1.83;100.00
25722;BME280;13578;53.450;15.496;2023-03-05T02:44:24;99223.44;;;-1.76;100.00
25722;BME280;13578;53.450;15.496;2023-03-05T02:47:26;99215.84;;;-1.67;100.00
25722;BME280;13578;53.450;15.496;2023-03-05T02:50:27;99209.31;;;-1.62;100.00
25722;BME280;13578;53.450;15.496;2023-03-05T02:53:29;99217.47;;;-1.63;100.00
25722;BME280;13578;53.450;15.496;2023-03-05T02:56:29;99210.16;;;-1.61;100.00
25722;BME280;13578;53.450;15.496;2023-03-05T02:59:30;99200.44;;;-1.64;100.00
25722;BME280;13578;53.450;15.496;2023-03-05T03:02:31;99192.13;;;-1.59;100.00
25722;BME280;13578;53.450;15.496;2023-03-05T03:05:32;99195.22;;;-1.49;100.00
25722;BME280;13578;53.450;15.496;2023-03-05T03:08:32;99189.84;;;-1.49;100.00
25722;BME280;13578;53.450;15.496;2023-03-05T03:11:33;99187.25;;;-1.51;100.00
25722;BME280;13578;53.450;15.496;2023-03-05T03:14:36;99184.47;;;-1.49;100.00
25722;BME280;13578;53.450;15.496;2023-03-05T03:17:38;99190.34;;;-1.58;100.00
25722;BME280;13578;53.450;15.496;2023-03-05T03:20:39;99180.44;;;-1.58;100.00
25722;BME280;13578;53.450;15.496;2023-03-05T03:23:40;99174.72;;;-1.52;100.00
25722;BME280;13578;53.450;15.496;2023-03-05T03:26:40;99167.91;;;-1.59;100.00
25722;BME280;13578;53.450;15.496;2023-03-05T03:29:41;99156.78;;;-1.51;100.00
25722;BME280;13578;53.450;15.496;2023-03-05T03:32:42;99158.09;;;-1.60;100.00
25722;BME280;13578;53.450;15.496;2023-03-05T03:35:44;99143.38;;;-1.53;100.00
25722;BME280;13578;53.450;15.496;2023-03-05T03:38:45;99136.34;;;-1.55;100.00
25722;BME280;13578;53.450;15.496;2023-03-05T03:41:48;99127.72;;;-1.62;100.00
25722;BME280;13578;53.450;15.496;2023-03-05T03:44:50;99126.84;;;-1.63;100.00
25722;BME280;13578;53.450;15.496;2023-03-05T03:47:50;99115.84;;;-1.58;100.00
25722;BME280;13578;53.450;15.496;2023-03-05T03:50:51;99111.56;;;-1.62;100.00
25722;BME280;13578;53.450;15.496;2023-03-05T03:53:52;99109.13;;;-1.67;100.00
25722;BME280;13578;53.450;15.496;2023-03-05T03:56:53;99106.09;;;-1.61;100.00
25722;BME280;13578;53.450;15.496;2023-03-05T03:59:53;99091.47;;;-1.72;100.00
25722;BME280;13578;53.450;15.496;2023-03-05T04:02:54;99080.22;;;-1.81;100.00
25722;BME280;13578;53.450;15.496;2023-03-05T04:05:55;99068.97;;;-1.89;100.00
25722;BME280;13578;53.450;15.496;2023-03-05T04:08:55;99067.94;;;-1.86;100.00
25722;BME280;13578;53.450;15.496;2023-03-05T04:11:56;99059.94;;;-1.88;100.00
25722;BME280;13578;53.450;15.496;2023-03-05T04:14:57;99055.38;;;-1.86;100.00
25722;BME280;13578;53.450;15.496;2023-03-05T04:17:58;99055.19;;;-1.83;100.00
25722;BME280;13578;53.450;15.496;2023-03-05T04:20:58;99037.97;;;-1.79;100.00
25722;BME280;13578;53.450;15.496;2023-03-05T04:23:59;99047.31;;;-1.86;100.00
25722;BME280;13578;53.450;15.496;2023-03-05T04:27:00;99044.28;;;-1.80;100.00
25722;BME280;13578;53.450;15.496;2023-03-05T04:30:00;99043.16;;;-1.76;100.00
25722;BME280;13578;53.450;15.496;2023-03-05T04:33:01;99033.63;;;-1.81;100.00
25722;BME280;13578;53.450;15.496;2023-03-05T04:36:02;99024.34;;;-1.76;100.00
25722;BME280;13578;53.450;15.496;2023-03-05T04:39:03;99025.31;;;-1.77;100.00
25722;BME280;13578;53.450;15.496;2023-03-05T04:42:04;99017.84;;;-1.89;100.00
25722;BME280;13578;53.450;15.496;2023-03-05T04:45:05;99011.84;;;-1.94;100.00
25722;BME280;13578;53.450;15.496;2023-03-05T04:48:08;99009.41;;;-1.99;100.00
25722;BME280;13578;53.450;15.496;2023-03-05T04:51:08;98999.53;;;-1.98;100.00
25722;BME280;13578;53.450;15.496;2023-03-05T04:54:09;99000.94;;;-1.91;100.00
25722;BME280;13578;53.450;15.496;2023-03-05T04:57:10;98998.56;;;-1.80;100.00
25722;BME280;13578;53.450;15.496;2023-03-05T05:00:13;98997.00;;;-1.84;100.00
25722;BME280;13578;53.450;15.496;2023-03-05T05:03:14;98997.00;;;-1.84;100.00
25722;BME280;13578;53.450;15.496;2023-03-05T05:06:15;98986.00;;;-1.97;100.00
25722;BME280;13578;53.450;15.496;2023-03-05T05:09:15;98979.75;;;-2.15;100.00
25722;BME280;13578;53.450;15.496;2023-03-05T05:12:16;98972.22;;;-2.08;100.00
25722;BME280;13578;53.450;15.496;2023-03-05T05:15:17;98965.50;;;-2.17;100.00
25722;BME280;13578;53.450;15.496;2023-03-05T05:18:18;98963.38;;;-2.10;100.00
25722;BME280;13578;53.450;15.496;2023-03-05T05:21:19;98952.84;;;-2.15;100.00
25722;BME280;13578;53.450;15.496;2023-03-05T05:24:19;98958.00;;;-2.10;100.00
25722;BME280;13578;53.450;15.496;2023-03-05T05:27:20;98949.66;;;-2.05;100.00
25722;BME280;13578;53.450;15.496;2023-03-05T05:30:21;98943.44;;;-2.06;100.00
25722;BME280;13578;53.450;15.496;2023-03-05T05:33:22;98938.06;;;-2.06;100.00
25722;BME280;13578;53.450;15.496;2023-03-05T05:36:23;98928.56;;;-1.96;100.00
25722;BME280;13578;53.450;15.496;2023-03-05T05:39:24;98948.88;;;-1.90;100.00
25722;BME280;13578;53.450;15.496;2023-03-05T05:42:24;98938.75;;;-2.02;100.00
25722;BME280;13578;53.450;15.496;2023-03-05T05:45:25;98936.63;;;-1.96;100.00
25722;BME280;13578;53.450;15.496;2023-03-05T05:48:30;98935.59;;;-1.93;100.00
25722;BME280;13578;53.450;15.496;2023-03-05T05:51:31;98933.63;;;-1.89;100.00
25722;BME280;13578;53.450;15.496;2023-03-05T05:54:32;98920.25;;;-1.91;100.00
25722;BME280;13578;53.450;15.496;2023-03-05T05:57:33;98924.59;;;-1.88;100.00
25722;BME280;13578;53.450;15.496;2023-03-05T06:00:34;98920.41;;;-1.77;100.00
25722;BME280;13578;53.450;15.496;2023-03-05T06:03:35;98919.97;;;-1.69;100.00
25722;BME280;13578;53.450;15.496;2023-03-05T06:06:36;98925.63;;;-1.57;100.00
25722;BME280;13578;53.450;15.496;2023-03-05T06:09:36;98922.22;;;-1.61;100.00
25722;BME280;13578;53.450;15.496;2023-03-05T06:12:37;98917.84;;;-1.62;100.00
25722;BME280;13578;53.450;15.496;2023-03-05T06:15:38;98921.28;;;-1.60;100.00
25722;BME280;13578;53.450;15.496;2023-03-05T06:18:39;98916.78;;;-1.60;100.00
25722;BME280;13578;53.450;15.496;2023-03-05T06:21:40;98916.28;;;-1.50;100.00
25722;BME280;13578;53.450;15.496;2023-03-05T06:24:42;98921.94;;;-1.55;100.00
25722;BME280;13578;53.450;15.496;2023-03-05T06:27:43;98918.34;;;-1.55;100.00
25722;BME280;13578;53.450;15.496;2023-03-05T06:30:44;98922.94;;;-1.57;100.00
25722;BME280;13578;53.450;15.496;2023-03-05T06:33:44;98927.47;;;-1.58;100.00
25722;BME280;13578;53.450;15.496;2023-03-05T06:36:45;98930.97;;;-1.40;100.00
25722;BME280;13578;53.450;15.496;2023-03-05T06:39:45;98912.28;;;-1.43;100.00
25722;BME280;13578;53.450;15.496;2023-03-05T06:42:46;98922.31;;;-1.29;100.00
25722;BME280;13578;53.450;15.496;2023-03-05T06:45:47;98924.41;;;-1.34;100.00
25722;BME280;13578;53.450;15.496;2023-03-05T06:48:48;98927.69;;;-1.29;100.00
25722;BME280;13578;53.450;15.496;2023-03-05T06:51:49;98933.41;;;-1.35;100.00
25722;BME280;13578;53.450;15.496;2023-03-05T06:54:49;98928.63;;;-1.30;100.00
25722;BME280;13578;53.450;15.496;2023-03-05T06:57:50;98933.25;;;-1.32;100.00
25722;BME280;13578;53.450;15.496;2023-03-05T07:00:51;98924.72;;;-1.40;100.00
25722;BME280;13578;53.450;15.496;2023-03-05T07:03:53;98928.28;;;-1.40;100.00
25722;BME280;13578;53.450;15.496;2023-03-05T07:06:54;98930.56;;;-1.32;100.00
25722;BME280;13578;53.450;15.496;2023-03-05T07:09:55;98942.75;;;-1.25;100.00
25722;BME280;13578;53.450;15.496;2023-03-05T07:12:55;98937.97;;;-1.20;100.00
25722;BME280;13578;53.450;15.496;2023-03-05T07:15:56;98934.47;;;-1.22;100.00
25722;BME280;13578;53.450;15.496;2023-03-05T07:18:59;98942.47;;;-1.20;100.00
25722;BME280;13578;53.450;15.496;2023-03-05T07:22:00;98944.13;;;-1.18;100.00
25722;BME280;13578;53.450;15.496;2023-03-05T07:25:00;98951.53;;;-1.05;100.00
25722;BME280;13578;53.450;15.496;2023-03-05T07:28:03;98950.13;;;-0.97;100.00
25722;BME280;13578;53.450;15.496;2023-03-05T07:31:11;98951.88;;;-0.96;100.00
25722;BME280;13578;53.450;15.496;2023-03-05T07:34:12;98956.06;;;-0.90;100.00
25722;BME280;13578;53.450;15.496;2023-03-05T07:37:13;98951.25;;;-0.85;100.00
25722;BME280;13578;53.450;15.496;2023-03-05T07:40:13;98953.00;;;-0.84;100.00
25722;BME280;13578;53.450;15.496;2023-03-05T07:43:14;98950.75;;;-0.75;100.00
25722;BME280;13578;53.450;15.496;2023-03-05T07:46:16;98965.34;;;-0.80;100.00
25722;BME280;13578;53.450;15.496;2023-03-05T07:49:17;98965.28;;;-0.78;100.00
25722;BME280;13578;53.450;15.496;2023-03-05T07:52:18;98963.44;;;-0.77;100.00
25722;BME280;13578;53.450;15.496;2023-03-05T07:55:18;98960.56;;;-0.74;100.00
25722;BME280;13578;53.450;15.496;2023-03-05T07:58:19;98967.78;;;-0.75;100.00
25722;BME280;13578;53.450;15.496;2023-03-05T08:01:20;98966.56;;;-0.69;100.00
25722;BME280;13578;53.450;15.496;2023-03-05T08:04:21;98977.19;;;-0.66;100.00
25722;BME280;13578;53.450;15.496;2023-03-05T08:07:21;98983.34;;;-0.64;100.00
25722;BME280;13578;53.450;15.496;2023-03-05T08:10:22;98987.88;;;-0.65;100.00
25722;BME280;13578;53.450;15.496;2023-03-05T08:13:22;98983.06;;;-0.59;100.00
25722;BME280;13578;53.450;15.496;2023-03-05T08:16:23;98990.47;;;-0.63;100.00
25722;BME280;13578;53.450;15.496;2023-03-05T08:19:25;98994.75;;;-0.59;100.00
25722;BME280;13578;53.450;15.496;2023-03-05T08:22:26;99002.81;;;-0.59;100.00
25722;BME280;13578;53.450;15.496;2023-03-05T08:25:27;98993.59;;;-0.55;100.00
25722;BME280;13578;53.450;15.496;2023-03-05T08:28:27;99000.38;;;-0.47;100.00
25722;BME280;13578;53.450;15.496;2023-03-05T08:31:28;99003.41;;;-0.38;100.00
25722;BME280;13578;53.450;15.496;2023-03-05T08:34:31;98997.41;;;-0.43;100.00
25722;BME280;13578;53.450;15.496;2023-03-05T08:37:32;99006.38;;;-0.26;100.00
25722;BME280;13578;53.450;15.496;2023-03-05T08:40:33;99010.63;;;-0.38;100.00
25722;BME280;13578;53.450;15.496;2023-03-05T08:43:33;99004.28;;;-0.37;100.00
25722;BME280;13578;53.450;15.496;2023-03-05T08:46:34;99016.16;;;-0.25;100.00
25722;BME280;13578;53.450;15.496;2023-03-05T08:49:36;99002.53;;;-0.22;100.00
25722;BME280;13578;53.450;15.496;2023-03-05T08:52:37;99017.38;;;-0.15;100.00
25722;BME280;13578;53.450;15.496;2023-03-05T08:55:37;99008.34;;;-0.14;100.00
25722;BME280;13578;53.450;15.496;2023-03-05T08:58:38;99016.31;;;-0.12;100.00
25722;BME280;13578;53.450;15.496;2023-03-05T09:01:39;99017.06;;;-0.25;100.00
25722;BME280;13578;53.450;15.496;2023-03-05T09:04:39;99012.16;;;-0.18;100.00
25722;BME280;13578;53.450;15.496;2023-03-05T09:07:40;99012.84;;;-0.14;100.00
25722;BME280;13578;53.450;15.496;2023-03-05T09:10:41;99007.44;;;-0.14;100.00
25722;BME280;13578;53.450;15.496;2023-03-05T09:13:42;99013.88;;;-0.01;100.00
25722;BME280;13578;53.450;15.496;2023-03-05T09:16:43;99013.63;;;0.04;100.00
25722;BME280;13578;53.450;15.496;2023-03-05T09:19:43;99010.63;;;0.08;100.00
25722;BME280;13578;53.450;15.496;2023-03-05T09:22:44;99007.22;;;0.21;100.00
25722;BME280;13578;53.450;15.496;2023-03-05T09:25:45;99012.72;;;0.03;100.00
25722;BME280;13578;53.450;15.496;2023-03-05T09:28:46;99007.91;;;0.08;100.00
25722;BME280;13578;53.450;15.496;2023-03-05T09:31:50;99001.13;;;0.17;100.00
25722;BME280;13578;53.450;15.496;2023-03-05T09:34:50;99009.25;;;0.01;100.00
25722;BME280;13578;53.450;15.496;2023-03-05T09:37:51;99006.22;;;0.07;100.00
25722;BME280;13578;53.450;15.496;2023-03-05T09:41:11;99011.25;;;0.13;100.00
25722;BME280;13578;53.450;15.496;2023-03-05T09:51:03;99010.38;;;0.27;100.00
25722;BME280;13578;53.450;15.496;2023-03-05T09:54:04;99011.06;;;0.31;100.00
25722;BME280;13578;53.450;15.496;2023-03-05T09:57:13;99005.88;;;0.28;100.00
25722;BME280;13578;53.450;15.496;2023-03-05T10:00:40;99008.75;;;0.25;100.00
25722;BME280;13578;53.450;15.496;2023-03-05T10:07:31;99004.28;;;0.09;100.00
25722;BME280;13578;53.450;15.496;2023-03-05T10:10:42;98999.72;;;-0.05;100.00
25722;BME280;13578;53.450;15.496;2023-03-05T10:13:44;98990.03;;;-0.09;100.00
25722;BME280;13578;53.450;15.496;2023-03-05T10:16:54;99002.47;;;-0.06;100.00
25722;BME280;13578;53.450;15.496;2023-03-05T10:20:21;99002.50;;;0.24;100.00
25722;BME280;13578;53.450;15.496;2023-03-05T10:23:32;99012.00;;;0.46;100.00
25722;BME280;13578;53.450;15.496;2023-03-05T10:27:06;99005.69;;;0.45;100.00
25722;BME280;13578;53.450;15.496;2023-03-05T10:46:16;98983.44;;;1.00;100.00
25722;BME280;13578;53.450;15.496;2023-03-05T10:49:19;98979.44;;;1.34;100.00
25722;BME280;13578;53.450;15.496;2023-03-05T10:52:28;98980.47;;;1.46;100.00
25722;BME280;13578;53.450;15.496;2023-03-05T10:55:31;98970.56;;;1.47;100.00
25722;BME280;13578;53.450;15.496;2023-03-05T10:58:32;98972.19;;;1.49;100.00
25722;BME280;13578;53.450;15.496;2023-03-05T11:01:34;98975.63;;;1.79;100.00
25722;BME280;13578;53.450;15.496;2023-03-05T11:04:38;98964.06;;;1.49;100.00
25722;BME280;13578;53.450;15.496;2023-03-05T11:07:39;98979.19;;;1.24;100.00
25722;BME280;13578;53.450;15.496;2023-03-05T11:10:39;99013.59;;;0.34;100.00
25722;BME280;13578;53.450;15.496;2023-03-05T11:13:56;99009.41;;;-0.81;100.00
25722;BME280;13578;53.450;15.496;2023-03-05T11:16:59;98985.75;;;-1.07;100.00
25722;BME280;13578;53.450;15.496;2023-03-05T11:23:31;98992.28;;;-1.45;100.00
25722;BME280;13578;53.450;15.496;2023-03-05T11:26:32;98993.31;;;-1.65;100.00
25722;BME280;13578;53.450;15.496;2023-03-05T11:29:33;98981.75;;;-1.67;100.00
25722;BME280;13578;53.450;15.496;2023-03-05T11:32:34;98978.03;;;-1.65;100.00
25722;BME280;13578;53.450;15.496;2023-03-05T11:35:38;98980.72;;;-1.65;100.00
25722;BME280;13578;53.450;15.496;2023-03-05T11:38:53;98960.00;;;-1.63;100.00
25722;BME280;13578;53.450;15.496;2023-03-05T11:44:57;98941.16;;;-1.29;100.00
25722;BME280;13578;53.450;15.496;2023-03-05T11:48:09;98943.09;;;-1.15;100.00
25722;BME280;13578;53.450;15.496;2023-03-05T11:51:46;98940.66;;;-0.88;100.00
25722;BME280;13578;53.450;15.496;2023-03-05T11:55:11;98943.97;;;-0.83;100.00
25722;BME280;13578;53.450;15.496;2023-03-05T12:01:35;98959.59;;;-0.89;100.00
25722;BME280;13578;53.450;15.496;2023-03-05T12:04:39;98959.84;;;-1.10;100.00
25722;BME280;13578;53.450;15.496;2023-03-05T12:07:43;98970.72;;;-1.12;100.00
25722;BME280;13578;53.450;15.496;2023-03-05T12:10:45;98962.81;;;-1.15;100.00
25722;BME280;13578;53.450;15.496;2023-03-05T12:13:52;98952.22;;;-1.18;100.00
25722;BME280;13578;53.450;15.496;2023-03-05T12:16:57;98952.97;;;-1.16;100.00
25722;BME280;13578;53.450;15.496;2023-03-05T12:20:28;98939.34;;;-1.13;100.00
25722;BME280;13578;53.450;15.496;2023-03-05T12:23:49;98951.97;;;-0.97;100.00
25722;BME280;13578;53.450;15.496;2023-03-05T12:30:03;98944.94;;;-1.00;100.00
25722;BME280;13578;53.450;15.496;2023-03-05T12:33:05;98954.81;;;-1.00;100.00
25722;BME280;13578;53.450;15.496;2023-03-05T12:36:32;98929.78;;;-1.02;100.00
25722;BME280;13578;53.450;15.496;2023-03-05T12:39:57;98934.56;;;-0.91;100.00
25722;BME280;13578;53.450;15.496;2023-03-05T12:43:02;98926.69;;;-0.94;100.00
25722;BME280;13578;53.450;15.496;2023-03-05T12:46:22;98918.34;;;-0.90;100.00
25722;BME280;13578;53.450;15.496;2023-03-05T12:52:29;98929.94;;;-0.73;100.00
25722;BME280;13578;53.450;15.496;2023-03-05T12:58:56;98929.06;;;-0.58;100.00
25722;BME280;13578;53.450;15.496;2023-03-05T13:02:00;98920.66;;;-0.52;100.00
25722;BME280;13578;53.450;15.496;2023-03-05T13:05:06;98930.50;;;-0.36;100.00
25722;BME280;13578;53.450;15.496;2023-03-05T13:08:19;98929.91;;;-0.41;100.00
25722;BME280;13578;53.450;15.496;2023-03-05T13:11:21;98931.13;;;-0.31;100.00
25722;BME280;13578;53.450;15.496;2023-03-05T13:14:33;98930.75;;;-0.25;100.00
25722;BME280;13578;53.450;15.496;2023-03-05T13:17:39;98925.25;;;-0.23;100.00
25722;BME280;13578;53.450;15.496;2023-03-05T13:20:40;98922.28;;;-0.19;100.00
25722;BME280;13578;53.450;15.496;2023-03-05T13:23:56;98920.00;;;-0.10;100.00
25722;BME280;13578;53.450;15.496;2023-03-05T13:26:57;98918.13;;;0.06;100.00
25722;BME280;13578;53.450;15.496;2023-03-05T13:29:57;98910.22;;;0.18;100.00
25722;BME280;13578;53.450;15.496;2023-03-05T13:33:01;98910.81;;;0.23;100.00
25722;BME280;13578;53.450;15.496;2023-03-05T13:36:05;98912.47;;;0.11;100.00
25722;BME280;13578;53.450;15.496;2023-03-05T13:39:06;98912.66;;;0.22;100.00
25722;BME280;13578;53.450;15.496;2023-03-05T13:45:30;98914.69;;;0.33;100.00
25722;BME280;13578;53.450;15.496;2023-03-05T13:48:31;98917.38;;;0.33;100.00
25722;BME280;13578;53.450;15.496;2023-03-05T13:51:47;98894.03;;;0.61;100.00
25722;BME280;13578;53.450;15.496;2023-03-05T13:54:48;98885.25;;;0.72;100.00
25722;BME280;13578;53.450;15.496;2023-03-05T13:57:51;98890.19;;;0.79;100.00
25722;BME280;13578;53.450;15.496;2023-03-05T14:01:11;98882.16;;;0.78;100.00
25722;BME280;13578;53.450;15.496;2023-03-05T14:10:37;98874.34;;;0.88;100.00
25722;BME280;13578;53.450;15.496;2023-03-05T14:13:39;98874.31;;;1.02;100.00
25722;BME280;13578;53.450;15.496;2023-03-05T14:16:40;98862.47;;;1.18;100.00
25722;BME280;13578;53.450;15.496;2023-03-05T14:19:41;98841.94;;;1.15;100.00
25722;BME280;13578;53.450;15.496;2023-03-05T14:22:46;98840.03;;;1.03;100.00
25722;BME280;13578;53.450;15.496;2023-03-05T14:25:50;98848.66;;;0.95;100.00
25722;BME280;13578;53.450;15.496;2023-03-05T14:32:21;98846.78;;;1.10;100.00
25722;BME280;13578;53.450;15.496;2023-03-05T14:35:26;98831.75;;;1.06;100.00
25722;BME280;13578;53.450;15.496;2023-03-05T14:38:29;98838.16;;;0.90;100.00
25722;BME280;13578;53.450;15.496;2023-03-05T14:41:39;98819.97;;;0.79;100.00
25722;BME280;13578;53.450;15.496;2023-03-05T14:44:40;98829.69;;;0.82;100.00
25722;BME280;13578;53.450;15.496;2023-03-05T14:47:41;98827.28;;;0.77;100.00
25722;BME280;13578;53.450;15.496;2023-03-05T14:50:50;98830.34;;;0.86;100.00
25722;BME280;13578;53.450;15.496;2023-03-05T14:53:51;98809.56;;;0.59;100.00
25722;BME280;13578;53.450;15.496;2023-03-05T14:56:52;98819.34;;;0.47;100.00
25722;BME280;13578;53.450;15.496;2023-03-05T14:59:53;98825.09;;;0.41;100.00
25722;BME280;13578;53.450;15.496;2023-03-05T15:02:54;98833.31;;;0.39;100.00
25722;BME280;13578;53.450;15.496;2023-03-05T15:05:57;98843.16;;;0.40;100.00
25722;BME280;13578;53.450;15.496;2023-03-05T15:08:59;98839.09;;;0.33;100.00
25722;BME280;13578;53.450;15.496;2023-03-05T15:12:00;98830.06;;;0.34;100.00
25722;BME280;13578;53.450;15.496;2023-03-05T15:15:01;98841.63;;;0.22;100.00
25722;BME280;13578;53.450;15.496;2023-03-05T15:18:02;98833.81;;;0.17;100.00
25722;BME280;13578;53.450;15.496;2023-03-05T15:21:03;98867.34;;;0.27;100.00
25722;BME280;13578;53.450;15.496;2023-03-05T15:24:04;98886.34;;;0.26;100.00
25722;BME280;13578;53.450;15.496;2023-03-05T15:27:05;98888.19;;;0.25;100.00
25722;BME280;13578;53.450;15.496;2023-03-05T15:30:07;98875.38;;;0.29;100.00
25722;BME280;13578;53.450;15.496;2023-03-05T15:33:11;98873.63;;;0.28;100.00
25722;BME280;13578;53.450;15.496;2023-03-05T15:36:12;98870.94;;;0.28;100.00
25722;BME280;13578;53.450;15.496;2023-03-05T15:39:12;98879.03;;;0.28;100.00
25722;BME280;13578;53.450;15.496;2023-03-05T15:42:13;98879.28;;;0.09;100.00
25722;BME280;13578;53.450;15.496;2023-03-05T15:45:14;98871.88;;;-0.02;100.00
25722;BME280;13578;53.450;15.496;2023-03-05T15:48:15;98870.56;;;-0.11;100.00
25722;BME280;13578;53.450;15.496;2023-03-05T15:51:16;98864.91;;;-0.06;100.00
25722;BME280;13578;53.450;15.496;2023-03-05T15:54:18;98877.13;;;-0.15;100.00
25722;BME280;13578;53.450;15.496;2023-03-05T15:57:19;98871.72;;;-0.15;100.00
25722;BME280;13578;53.450;15.496;2023-03-05T16:00:25;98857.75;;;-0.07;100.00
25722;BME280;13578;53.450;15.496;2023-03-05T16:03:28;98854.97;;;-0.20;100.00
25722;BME280;13578;53.450;15.496;2023-03-05T16:06:29;98858.59;;;-0.36;100.00
25722;BME280;13578;53.450;15.496;2023-03-05T16:09:35;98862.88;;;-0.47;100.00
25722;BME280;13578;53.450;15.496;2023-03-05T16:12:37;98856.97;;;-0.54;100.00
25722;BME280;13578;53.450;15.496;2023-03-05T16:15:40;98857.88;;;-0.70;100.00
25722;BME280;13578;53.450;15.496;2023-03-05T16:18:42;98857.19;;;-0.57;100.00
25722;BME280;13578;53.450;15.496;2023-03-05T16:21:44;98865.22;;;-0.72;100.00
25722;BME280;13578;53.450;15.496;2023-03-05T16:24:45;98868.59;;;-0.84;100.00
25722;BME280;13578;53.450;15.496;2023-03-05T16:27:45;98863.31;;;-0.86;100.00
25722;BME280;13578;53.450;15.496;2023-03-05T16:30:56;98853.41;;;-1.01;100.00
25722;BME280;13578;53.450;15.496;2023-03-05T16:33:57;98852.22;;;-1.12;100.00
25722;BME280;13578;53.450;15.496;2023-03-05T16:36:57;98854.38;;;-1.02;100.00
25722;BME280;13578;53.450;15.496;2023-03-05T16:40:00;98858.56;;;-1.13;100.00
25722;BME280;13578;53.450;15.496;2023-03-05T16:43:00;98860.31;;;-1.12;100.00
25722;BME280;13578;53.450;15.496;2023-03-05T16:46:01;98860.56;;;-1.00;100.00